sensor_id;sensor_type;location;lat;lon;timestamp;temperature;humidity
4699;DHT22;33708;49.466;11.176;2022-11-23T00:00:29;6.80;99.90
4699;DHT22;33708;49.466;11.176;2022-11-23T00:02:58;6.90;99.90
4699;DHT22;33708;49.466;11.176;2022-11-23T00:05:26;6.70;99.90
4699;DHT22;33708;49.466;11.176;2022-11-23T00:07:52;6.60;99.90
4699;DHT22;33708;49.466;11.176;2022-11-23T00:10:18;6.60;99.90
4699;DHT22;33708;49.466;11.176;2022-11-23T00:12:44;6.90;99.90
4699;DHT22;33708;49.466;11.176;2022-11-23T00:15:11;6.50;99.90
4699;DHT22;33708;49.466;11.176;2022-11-23T00:17:37;6.60;99.90
4699;DHT22;33708;49.466;11.176;2022-11-23T00:20:04;6.50;99.90
4699;DHT22;33708;49.466;11.176;2022-11-23T00:22:30;6.50;99.90
4699;DHT22;33708;49.466;11.176;2022-11-23T00:24:56;6.50;99.90
4699;DHT22;33708;49.466;11.176;2022-11-23T00:27:22;6.50;99.90
4699;DHT22;33708;49.466;11.176;2022-11-23T00:29:47;6.40;99.90
4699;DHT22;33708;49.466;11.176;2022-11-23T00:32:13;6.30;99.90
4699;DHT22;33708;49.466;11.176;2022-11-23T00:34:38;6.20;99.90
4699;DHT22;33708;49.466;11.176;2022-11-23T00:37:04;6.10;99.90
4699;DHT22;33708;49.466;11.176;2022-11-23T00:39:29;6.00;99.90
4699;DHT22;33708;49.466;11.176;2022-11-23T00:41:55;6.20;99.90
4699;DHT22;33708;49.466;11.176;2022-11-23T00:44:21;5.80;99.90
4699;DHT22;33708;49.466;11.176;2022-11-23T00:46:46;5.70;99.90
4699;DHT22;33708;49.466;11.176;2022-11-23T00:49:12;5.50;99.90
4699;DHT22;33708;49.466;11.176;2022-11-23T00:51:37;5.40;99.90
4699;DHT22;33708;49.466;11.176;2022-11-23T00:54:04;5.30;99.90
4699;DHT22;33708;49.466;11.176;2022-11-23T00:56:30;5.10;99.90
4699;DHT22;33708;49.466;11.176;2022-11-23T00:58:58;5.10;99.90
4699;DHT22;33708;49.466;11.176;2022-11-23T01:01:26;4.80;99.90
4699;DHT22;33708;49.466;11.176;2022-11-23T01:03:55;4.70;99.90
4699;DHT22;33708;49.466;11.176;2022-11-23T01:06:25;4.60;99.90
4699;DHT22;33708;49.466;11.176;2022-11-23T01:08:57;4.50;99.90
4699;DHT22;33708;49.466;11.176;2022-11-23T01:11:25;4.40;99.90
4699;DHT22;33708;49.466;11.176;2022-11-23T01:13:51;4.40;99.90
4699;DHT22;33708;49.466;11.176;2022-11-23T01:16:23;4.40;99.90
4699;DHT22;33708;49.466;11.176;2022-11-23T01:18:53;4.40;99.90
4699;DHT22;33708;49.466;11.176;2022-11-23T01:21:18;4.40;99.90
4699;DHT22;33708;49.466;11.176;2022-11-23T01:23:44;4.30;99.90
4699;DHT22;33708;49.466;11.176;2022-11-23T01:26:10;4.30;99.90
4699;DHT22;33708;49.466;11.176;2022-11-23T01:28:37;4.40;99.90
4699;DHT22;33708;49.466;11.176;2022-11-23T01:31:09;4.30;99.90
4699;DHT22;33708;49.466;11.176;2022-11-23T01:33:36;4.20;99.90
4699;DHT22;33708;49.466;11.176;2022-11-23T01:36:17;4.20;99.90
4699;DHT22;33708;49.466;11.176;2022-11-23T01:38:45;4.30;99.90
4699;DHT22;33708;49.466;11.176;2022-11-23T01:41:16;4.20;99.90
4699;DHT22;33708;49.466;11.176;2022-11-23T01:43:44;4.10;99.90
4699;DHT22;33708;49.466;11.176;2022-11-23T01:46:11;4.00;99.90
4699;DHT22;33708;49.466;11.176;2022-11-23T01:51:25;3.80;99.90
4699;DHT22;33708;49.466;11.176;2022-11-23T01:53:53;3.70;99.90
4699;DHT22;33708;49.466;11.176;2022-11-23T01:56:27;3.60;99.90
4699;DHT22;33708;49.466;11.176;2022-11-23T01:58:54;3.60;99.90
4699;DHT22;33708;49.466;11.176;2022-11-23T02:01:21;3.60;99.90
4699;DHT22;33708;49.466;11.176;2022-11-23T02:03:48;3.60;99.90
4699;DHT22;33708;49.466;11.176;2022-11-23T02:06:17;3.50;99.90
4699;DHT22;33708;49.466;11.176;2022-11-23T02:08:44;3.50;99.90
4699;DHT22;33708;49.466;11.176;2022-11-23T02:11:12;3.40;99.90
4699;DHT22;33708;49.466;11.176;2022-11-23T02:13:38;3.30;99.90
4699;DHT22;33708;49.466;11.176;2022-11-23T02:16:04;3.20;99.90
4699;DHT22;33708;49.466;11.176;2022-11-23T02:18:31;3.20;99.90
4699;DHT22;33708;49.466;11.176;2022-11-23T02:20:59;3.20;99.90
4699;DHT22;33708;49.466;11.176;2022-11-23T02:26:27;3.20;99.90
4699;DHT22;33708;49.466;11.176;2022-11-23T02:29:06;3.20;99.90
4699;DHT22;33708;49.466;11.176;2022-11-23T02:31:33;3.30;99.90
4699;DHT22;33708;49.466;11.176;2022-11-23T02:33:59;3.30;99.90
4699;DHT22;33708;49.466;11.176;2022-11-23T02:38:58;3.20;99.90
4699;DHT22;33708;49.466;11.176;2022-11-23T02:41:25;3.30;99.90
4699;DHT22;33708;49.466;11.176;2022-11-23T02:43:55;3.40;99.90
4699;DHT22;33708;49.466;11.176;2022-11-23T02:46:21;3.60;99.90
4699;DHT22;33708;49.466;11.176;2022-11-23T02:48:47;3.60;99.90
4699;DHT22;33708;49.466;11.176;2022-11-23T02:51:13;3.70;99.90
4699;DHT22;33708;49.466;11.176;2022-11-23T02:53:38;3.90;99.90
4699;DHT22;33708;49.466;11.176;2022-11-23T02:56:04;3.90;99.90
4699;DHT22;33708;49.466;11.176;2022-11-23T02:58:30;3.80;99.90
4699;DHT22;33708;49.466;11.176;2022-11-23T03:00:55;3.90;99.90
4699;DHT22;33708;49.466;11.176;2022-11-23T03:03:21;3.80;99.90
4699;DHT22;33708;49.466;11.176;2022-11-23T03:05:46;3.90;99.90
4699;DHT22;33708;49.466;11.176;2022-11-23T03:08:12;3.70;99.90
4699;DHT22;33708;49.466;11.176;2022-11-23T03:10:38;3.70;99.90
4699;DHT22;33708;49.466;11.176;2022-11-23T03:13:03;3.70;99.90
4699;DHT22;33708;49.466;11.176;2022-11-23T03:15:29;3.60;99.90
4699;DHT22;33708;49.466;11.176;2022-11-23T03:17:56;3.60;99.90
4699;DHT22;33708;49.466;11.176;2022-11-23T03:20:21;3.60;99.90
4699;DHT22;33708;49.466;11.176;2022-11-23T03:22:47;3.60;99.90
4699;DHT22;33708;49.466;11.176;2022-11-23T03:25:12;3.80;99.90
4699;DHT22;33708;49.466;11.176;2022-11-23T03:27:38;3.60;99.90
4699;DHT22;33708;49.466;11.176;2022-11-23T03:30:05;3.70;99.90
4699;DHT22;33708;49.466;11.176;2022-11-23T03:32:31;3.70;99.90
4699;DHT22;33708;49.466;11.176;2022-11-23T03:34:58;3.70;99.90
4699;DHT22;33708;49.466;11.176;2022-11-23T03:37:23;3.70;99.90
4699;DHT22;33708;49.466;11.176;2022-11-23T03:39:49;3.80;99.90
4699;DHT22;33708;49.466;11.176;2022-11-23T03:42:15;3.70;99.90
4699;DHT22;33708;49.466;11.176;2022-11-23T03:44:41;3.70;99.90
4699;DHT22;33708;49.466;11.176;2022-11-23T03:47:06;3.70;99.90
4699;DHT22;33708;49.466;11.176;2022-11-23T03:49:32;3.60;99.90
4699;DHT22;33708;49.466;11.176;2022-11-23T03:51:58;3.70;99.90
4699;DHT22;33708;49.466;11.176;2022-11-23T03:54:23;3.60;99.90
4699;DHT22;33708;49.466;11.176;2022-11-23T03:56:49;3.50;99.90
4699;DHT22;33708;49.466;11.176;2022-11-23T03:59:15;3.40;99.90
4699;DHT22;33708;49.466;11.176;2022-11-23T04:01:40;3.30;99.90
4699;DHT22;33708;49.466;11.176;2022-11-23T04:04:06;3.50;99.90
4699;DHT22;33708;49.466;11.176;2022-11-23T04:06:31;3.40;99.90
4699;DHT22;33708;49.466;11.176;2022-11-23T04:08:57;3.60;99.90
4699;DHT22;33708;49.466;11.176;2022-11-23T04:11:22;3.50;99.90
4699;DHT22;33708;49.466;11.176;2022-11-23T04:13:48;3.40;99.90
4699;DHT22;33708;49.466;11.176;2022-11-23T04:16:14;3.30;99.90
4699;DHT22;33708;49.466;11.176;2022-11-23T04:18:39;3.30;99.90
4699;DHT22;33708;49.466;11.176;2022-11-23T04:21:05;3.10;99.90
4699;DHT22;33708;49.466;11.176;2022-11-23T04:23:30;3.00;99.90
4699;DHT22;33708;49.466;11.176;2022-11-23T04:25:56;3.20;99.90
4699;DHT22;33708;49.466;11.176;2022-11-23T04:28:21;3.40;99.90
4699;DHT22;33708;49.466;11.176;2022-11-23T04:30:47;3.40;99.90
4699;DHT22;33708;49.466;11.176;2022-11-23T04:33:13;3.60;99.90
4699;DHT22;33708;49.466;11.176;2022-11-23T04:35:38;3.50;99.90
4699;DHT22;33708;49.466;11.176;2022-11-23T04:38:04;3.70;99.90
4699;DHT22;33708;49.466;11.176;2022-11-23T04:40:30;3.70;99.90
4699;DHT22;33708;49.466;11.176;2022-11-23T04:42:56;3.80;99.90
4699;DHT22;33708;49.466;11.176;2022-11-23T04:45:22;3.80;99.90
4699;DHT22;33708;49.466;11.176;2022-11-23T04:47:48;3.70;99.90
4699;DHT22;33708;49.466;11.176;2022-11-23T04:50:14;3.90;99.90
4699;DHT22;33708;49.466;11.176;2022-11-23T04:52:40;3.90;99.90
4699;DHT22;33708;49.466;11.176;2022-11-23T04:55:06;3.90;99.90
4699;DHT22;33708;49.466;11.176;2022-11-23T04:57:32;4.10;99.90
4699;DHT22;33708;49.466;11.176;2022-11-23T04:59:57;4.00;99.90
4699;DHT22;33708;49.466;11.176;2022-11-23T05:02:23;4.10;99.90
4699;DHT22;33708;49.466;11.176;2022-11-23T05:04:48;4.00;99.90
4699;DHT22;33708;49.466;11.176;2022-11-23T05:07:14;4.20;99.90
4699;DHT22;33708;49.466;11.176;2022-11-23T05:09:39;4.30;99.90
4699;DHT22;33708;49.466;11.176;2022-11-23T05:12:05;4.10;99.90
4699;DHT22;33708;49.466;11.176;2022-11-23T05:14:31;4.10;99.90
4699;DHT22;33708;49.466;11.176;2022-11-23T05:16:57;4.10;99.90
4699;DHT22;33708;49.466;11.176;2022-11-23T05:19:22;4.10;99.90
4699;DHT22;33708;49.466;11.176;2022-11-23T05:21:48;4.00;99.90
4699;DHT22;33708;49.466;11.176;2022-11-23T05:24:14;4.00;99.90
4699;DHT22;33708;49.466;11.176;2022-11-23T05:26:39;4.40;99.90
4699;DHT22;33708;49.466;11.176;2022-11-23T05:29:05;4.20;99.90
4699;DHT22;33708;49.466;11.176;2022-11-23T05:31:31;4.30;99.90
4699;DHT22;33708;49.466;11.176;2022-11-23T05:33:56;4.20;99.90
4699;DHT22;33708;49.466;11.176;2022-11-23T05:36:22;4.00;99.90
4699;DHT22;33708;49.466;11.176;2022-11-23T05:38:47;4.10;99.90
4699;DHT22;33708;49.466;11.176;2022-11-23T05:41:13;3.90;99.90
4699;DHT22;33708;49.466;11.176;2022-11-23T05:43:38;4.00;99.90
4699;DHT22;33708;49.466;11.176;2022-11-23T05:46:04;4.20;99.90
4699;DHT22;33708;49.466;11.176;2022-11-23T05:48:30;4.30;99.90
4699;DHT22;33708;49.466;11.176;2022-11-23T05:50:55;4.40;99.90
4699;DHT22;33708;49.466;11.176;2022-11-23T05:53:21;4.50;99.90
4699;DHT22;33708;49.466;11.176;2022-11-23T05:55:47;4.70;99.90
4699;DHT22;33708;49.466;11.176;2022-11-23T05:58:12;4.40;99.90
4699;DHT22;33708;49.466;11.176;2022-11-23T06:00:38;4.50;99.90
4699;DHT22;33708;49.466;11.176;2022-11-23T06:03:04;4.50;99.90
4699;DHT22;33708;49.466;11.176;2022-11-23T06:05:30;4.50;99.90
4699;DHT22;33708;49.466;11.176;2022-11-23T06:07:55;4.60;99.90
4699;DHT22;33708;49.466;11.176;2022-11-23T06:10:21;4.70;99.90
4699;DHT22;33708;49.466;11.176;2022-11-23T06:12:47;5.00;99.90
4699;DHT22;33708;49.466;11.176;2022-11-23T06:15:14;5.10;99.90
4699;DHT22;33708;49.466;11.176;2022-11-23T06:17:40;4.90;99.90
4699;DHT22;33708;49.466;11.176;2022-11-23T06:20:07;5.00;99.90
4699;DHT22;33708;49.466;11.176;2022-11-23T06:22:33;4.90;99.90
4699;DHT22;33708;49.466;11.176;2022-11-23T06:24:59;4.90;99.90
4699;DHT22;33708;49.466;11.176;2022-11-23T06:27:24;4.70;99.90
4699;DHT22;33708;49.466;11.176;2022-11-23T06:29:50;4.50;99.90
4699;DHT22;33708;49.466;11.176;2022-11-23T06:32:15;4.90;99.90
4699;DHT22;33708;49.466;11.176;2022-11-23T06:34:41;4.70;99.90
4699;DHT22;33708;49.466;11.176;2022-11-23T06:37:07;4.70;99.90
4699;DHT22;33708;49.466;11.176;2022-11-23T06:39:32;4.60;99.90
4699;DHT22;33708;49.466;11.176;2022-11-23T06:41:58;4.80;99.90
4699;DHT22;33708;49.466;11.176;2022-11-23T06:44:23;4.90;99.90
4699;DHT22;33708;49.466;11.176;2022-11-23T06:46:49;5.00;99.90
4699;DHT22;33708;49.466;11.176;2022-11-23T06:49:15;5.00;99.90
4699;DHT22;33708;49.466;11.176;2022-11-23T06:51:44;5.00;99.90
4699;DHT22;33708;49.466;11.176;2022-11-23T06:54:11;5.00;99.90
4699;DHT22;33708;49.466;11.176;2022-11-23T06:56:36;5.10;99.90
4699;DHT22;33708;49.466;11.176;2022-11-23T06:59:02;4.80;99.90
4699;DHT22;33708;49.466;11.176;2022-11-23T07:01:28;4.80;99.90
4699;DHT22;33708;49.466;11.176;2022-11-23T07:03:54;4.90;99.90
4699;DHT22;33708;49.466;11.176;2022-11-23T07:06:19;4.90;99.90
4699;DHT22;33708;49.466;11.176;2022-11-23T07:08:45;5.20;99.90
4699;DHT22;33708;49.466;11.176;2022-11-23T07:11:11;5.40;99.90
4699;DHT22;33708;49.466;11.176;2022-11-23T07:13:37;5.70;99.90
4699;DHT22;33708;49.466;11.176;2022-11-23T07:16:03;5.70;99.90
4699;DHT22;33708;49.466;11.176;2022-11-23T07:18:29;5.50;99.90
4699;DHT22;33708;49.466;11.176;2022-11-23T07:20:56;5.10;99.90
4699;DHT22;33708;49.466;11.176;2022-11-23T07:23:22;5.20;99.90
4699;DHT22;33708;49.466;11.176;2022-11-23T07:25:48;5.70;99.90
4699;DHT22;33708;49.466;11.176;2022-11-23T07:28:14;5.50;99.90
4699;DHT22;33708;49.466;11.176;2022-11-23T07:30:40;5.50;99.90
4699;DHT22;33708;49.466;11.176;2022-11-23T07:33:08;5.50;99.90
4699;DHT22;33708;49.466;11.176;2022-11-23T07:35:35;5.50;99.90
4699;DHT22;33708;49.466;11.176;2022-11-23T07:38:02;5.60;99.90
4699;DHT22;33708;49.466;11.176;2022-11-23T07:40:28;5.70;99.90
4699;DHT22;33708;49.466;11.176;2022-11-23T07:43:01;5.80;99.90
4699;DHT22;33708;49.466;11.176;2022-11-23T07:45:30;5.80;99.90
4699;DHT22;33708;49.466;11.176;2022-11-23T07:50:24;5.80;99.90
4699;DHT22;33708;49.466;11.176;2022-11-23T07:52:49;5.60;99.90
4699;DHT22;33708;49.466;11.176;2022-11-23T07:55:15;5.80;99.90
4699;DHT22;33708;49.466;11.176;2022-11-23T07:57:40;5.90;99.90
4699;DHT22;33708;49.466;11.176;2022-11-23T08:00:07;6.00;99.90
4699;DHT22;33708;49.466;11.176;2022-11-23T08:02:32;6.20;99.90
4699;DHT22;33708;49.466;11.176;2022-11-23T08:04:58;6.30;99.90
4699;DHT22;33708;49.466;11.176;2022-11-23T08:07:24;6.20;99.90
4699;DHT22;33708;49.466;11.176;2022-11-23T08:09:49;6.30;99.90
4699;DHT22;33708;49.466;11.176;2022-11-23T08:12:15;6.20;99.90
4699;DHT22;33708;49.466;11.176;2022-11-23T08:14:40;6.40;99.90
4699;DHT22;33708;49.466;11.176;2022-11-23T08:17:06;6.70;99.90
4699;DHT22;33708;49.466;11.176;2022-11-23T08:19:32;6.90;99.90
4699;DHT22;33708;49.466;11.176;2022-11-23T08:21:57;6.70;99.90
4699;DHT22;33708;49.466;11.176;2022-11-23T08:24:23;6.60;99.90
4699;DHT22;33708;49.466;11.176;2022-11-23T08:26:48;6.60;99.90
4699;DHT22;33708;49.466;11.176;2022-11-23T08:29:14;6.80;99.90
4699;DHT22;33708;49.466;11.176;2022-11-23T08:31:39;6.80;99.90
4699;DHT22;33708;49.466;11.176;2022-11-23T08:34:05;6.80;99.90
4699;DHT22;33708;49.466;11.176;2022-11-23T08:36:31;6.70;99.90
4699;DHT22;33708;49.466;11.176;2022-11-23T08:38:56;6.60;99.90
4699;DHT22;33708;49.466;11.176;2022-11-23T08:41:22;6.80;99.90
4699;DHT22;33708;49.466;11.176;2022-11-23T08:43:47;6.90;99.90
4699;DHT22;33708;49.466;11.176;2022-11-23T08:46:13;7.10;99.90
4699;DHT22;33708;49.466;11.176;2022-11-23T08:48:39;7.00;99.90
4699;DHT22;33708;49.466;11.176;2022-11-23T08:51:05;6.90;99.90
4699;DHT22;33708;49.466;11.176;2022-11-23T08:53:30;7.00;99.90
4699;DHT22;33708;49.466;11.176;2022-11-23T08:56:00;7.00;99.90
4699;DHT22;33708;49.466;11.176;2022-11-23T08:58:26;7.30;99.90
4699;DHT22;33708;49.466;11.176;2022-11-23T09:00:51;7.40;99.90
4699;DHT22;33708;49.466;11.176;2022-11-23T09:03:17;7.50;99.90
4699;DHT22;33708;49.466;11.176;2022-11-23T09:05:43;7.80;99.90
4699;DHT22;33708;49.466;11.176;2022-11-23T09:08:08;7.60;99.90
4699;DHT22;33708;49.466;11.176;2022-11-23T09:10:34;7.90;99.90
4699;DHT22;33708;49.466;11.176;2022-11-23T09:13:00;7.80;99.90
4699;DHT22;33708;49.466;11.176;2022-11-23T09:15:25;8.10;99.90
4699;DHT22;33708;49.466;11.176;2022-11-23T09:17:51;8.10;99.90
4699;DHT22;33708;49.466;11.176;2022-11-23T09:20:17;8.20;99.90
4699;DHT22;33708;49.466;11.176;2022-11-23T09:22:42;8.20;99.90
4699;DHT22;33708;49.466;11.176;2022-11-23T09:25:08;8.20;99.90
4699;DHT22;33708;49.466;11.176;2022-11-23T09:27:35;8.30;99.90
4699;DHT22;33708;49.466;11.176;2022-11-23T09:30:01;8.50;99.90
4699;DHT22;33708;49.466;11.176;2022-11-23T09:32:26;9.10;99.90
4699;DHT22;33708;49.466;11.176;2022-11-23T09:34:52;8.80;99.90
4699;DHT22;33708;49.466;11.176;2022-11-23T09:37:18;8.90;99.90
4699;DHT22;33708;49.466;11.176;2022-11-23T09:39:43;9.30;99.90
4699;DHT22;33708;49.466;11.176;2022-11-23T09:42:21;9.80;99.90
4699;DHT22;33708;49.466;11.176;2022-11-23T09:45:17;9.90;99.90
4699;DHT22;33708;49.466;11.176;2022-11-23T09:50:50;9.70;99.90
4699;DHT22;33708;49.466;11.176;2022-11-23T09:53:29;9.90;99.90
4699;DHT22;33708;49.466;11.176;2022-11-23T09:55:57;9.10;99.90
4699;DHT22;33708;49.466;11.176;2022-11-23T09:58:26;8.70;99.90
4699;DHT22;33708;49.466;11.176;2022-11-23T10:01:03;8.40;99.90
4699;DHT22;33708;49.466;11.176;2022-11-23T10:03:36;8.70;99.90
4699;DHT22;33708;49.466;11.176;2022-11-23T10:06:06;8.50;99.90
4699;DHT22;33708;49.466;11.176;2022-11-23T10:09:24;8.70;99.90
4699;DHT22;33708;49.466;11.176;2022-11-23T10:11:58;8.90;99.90
4699;DHT22;33708;49.466;11.176;2022-11-23T10:22:23;9.70;99.90
4699;DHT22;33708;49.466;11.176;2022-11-23T10:24:52;9.70;99.90
4699;DHT22;33708;49.466;11.176;2022-11-23T10:27:22;9.50;99.90
4699;DHT22;33708;49.466;11.176;2022-11-23T10:29:49;9.90;99.90
4699;DHT22;33708;49.466;11.176;2022-11-23T10:32:54;9.70;99.90
4699;DHT22;33708;49.466;11.176;2022-11-23T10:35:33;10.20;99.90
4699;DHT22;33708;49.466;11.176;2022-11-23T10:41:05;10.70;99.90
4699;DHT22;33708;49.466;11.176;2022-11-23T10:46:31;10.40;99.90
4699;DHT22;33708;49.466;11.176;2022-11-23T10:52:26;10.10;99.90
4699;DHT22;33708;49.466;11.176;2022-11-23T10:54:54;10.00;99.90
4699;DHT22;33708;49.466;11.176;2022-11-23T11:00:18;9.70;99.90
4699;DHT22;33708;49.466;11.176;2022-11-23T11:02:55;9.60;99.90
4699;DHT22;33708;49.466;11.176;2022-11-23T11:07:58;10.00;99.90
4699;DHT22;33708;49.466;11.176;2022-11-23T11:10:37;10.20;99.90
4699;DHT22;33708;49.466;11.176;2022-11-23T11:18:25;10.70;99.90
4699;DHT22;33708;49.466;11.176;2022-11-23T11:20:59;11.20;99.90
4699;DHT22;33708;49.466;11.176;2022-11-23T11:23:25;11.10;99.90
4699;DHT22;33708;49.466;11.176;2022-11-23T11:26:06;10.90;99.90
4699;DHT22;33708;49.466;11.176;2022-11-23T11:28:34;11.00;99.90
4699;DHT22;33708;49.466;11.176;2022-11-23T11:31:24;10.90;99.90
4699;DHT22;33708;49.466;11.176;2022-11-23T11:36:38;10.90;99.90
4699;DHT22;33708;49.466;11.176;2022-11-23T11:39:12;10.80;99.90
4699;DHT22;33708;49.466;11.176;2022-11-23T11:41:41;11.00;99.90
4699;DHT22;33708;49.466;11.176;2022-11-23T11:44:17;10.60;99.90
4699;DHT22;33708;49.466;11.176;2022-11-23T11:46:49;11.20;99.90
4699;DHT22;33708;49.466;11.176;2022-11-23T11:49:34;11.00;99.90
4699;DHT22;33708;49.466;11.176;2022-11-23T11:52:09;11.00;99.90
4699;DHT22;33708;49.466;11.176;2022-11-23T11:54:49;11.00;99.90
4699;DHT22;33708;49.466;11.176;2022-11-23T11:59:47;10.90;99.90
4699;DHT22;33708;49.466;11.176;2022-11-23T12:02:24;10.60;99.90
4699;DHT22;33708;49.466;11.176;2022-11-23T12:04:56;10.40;99.90
4699;DHT22;33708;49.466;11.176;2022-11-23T12:07:35;10.40;99.90
4699;DHT22;33708;49.466;11.176;2022-11-23T12:10:37;10.40;99.90
4699;DHT22;33708;49.466;11.176;2022-11-23T12:13:11;10.10;99.90
4699;DHT22;33708;49.466;11.176;2022-11-23T12:15:41;10.00;99.90
4699;DHT22;33708;49.466;11.176;2022-11-23T12:18:22;9.90;99.90
4699;DHT22;33708;49.466;11.176;2022-11-23T12:35:07;9.50;99.90
4699;DHT22;33708;49.466;11.176;2022-11-23T12:37:50;9.40;99.90
4699;DHT22;33708;49.466;11.176;2022-11-23T12:40:50;9.50;99.90
4699;DHT22;33708;49.466;11.176;2022-11-23T12:43:25;9.40;99.90
4699;DHT22;33708;49.466;11.176;2022-11-23T12:46:07;9.50;99.90
4699;DHT22;33708;49.466;11.176;2022-11-23T12:57:09;9.30;99.90
4699;DHT22;33708;49.466;11.176;2022-11-23T13:08:09;9.10;99.90
4699;DHT22;33708;49.466;11.176;2022-11-23T13:13:51;9.00;99.90
4699;DHT22;33708;49.466;11.176;2022-11-23T13:16:57;9.00;99.90
4699;DHT22;33708;49.466;11.176;2022-11-23T13:21:53;9.10;99.90
4699;DHT22;33708;49.466;11.176;2022-11-23T13:24:33;9.10;99.90
4699;DHT22;33708;49.466;11.176;2022-11-23T13:34:58;9.10;99.90
4699;DHT22;33708;49.466;11.176;2022-11-23T13:37:23;9.10;99.90
4699;DHT22;33708;49.466;11.176;2022-11-23T13:42:15;9.00;99.90
4699;DHT22;33708;49.466;11.176;2022-11-23T13:44:41;9.00;99.90
4699;DHT22;33708;49.466;11.176;2022-11-23T13:49:46;9.00;99.90
4699;DHT22;33708;49.466;11.176;2022-11-23T13:57:31;8.80;99.90
4699;DHT22;33708;49.466;11.176;2022-11-23T14:06:08;8.70;99.90
4699;DHT22;33708;49.466;11.176;2022-11-23T14:08:36;8.60;99.90
4699;DHT22;33708;49.466;11.176;2022-11-23T14:11:18;8.60;99.90
4699;DHT22;33708;49.466;11.176;2022-11-23T14:13:55;8.60;99.90
4699;DHT22;33708;49.466;11.176;2022-11-23T14:19:04;8.40;99.90
4699;DHT22;33708;49.466;11.176;2022-11-23T14:30:02;8.20;99.90
4699;DHT22;33708;49.466;11.176;2022-11-23T14:38:37;8.00;99.90
4699;DHT22;33708;49.466;11.176;2022-11-23T14:41:06;7.90;99.90
4699;DHT22;33708;49.466;11.176;2022-11-23T14:43:35;7.80;99.90
4699;DHT22;33708;49.466;11.176;2022-11-23T14:46:06;7.70;99.90
4699;DHT22;33708;49.466;11.176;2022-11-23T14:48:37;7.70;99.90
4699;DHT22;33708;49.466;11.176;2022-11-23T14:51:09;7.60;99.90
4699;DHT22;33708;49.466;11.176;2022-11-23T14:53:41;7.70;99.90
4699;DHT22;33708;49.466;11.176;2022-11-23T14:56:35;7.50;99.90
4699;DHT22;33708;49.466;11.176;2022-11-23T14:59:08;7.40;99.90
4699;DHT22;33708;49.466;11.176;2022-11-23T15:01:35;7.30;99.90
4699;DHT22;33708;49.466;11.176;2022-11-23T15:04:09;7.30;99.90
4699;DHT22;33708;49.466;11.176;2022-11-23T15:06:38;7.20;99.90
4699;DHT22;33708;49.466;11.176;2022-11-23T15:09:15;7.00;99.90
4699;DHT22;33708;49.466;11.176;2022-11-23T15:11:43;7.00;99.90
4699;DHT22;33708;49.466;11.176;2022-11-23T15:14:17;6.90;99.90
4699;DHT22;33708;49.466;11.176;2022-11-23T15:16:44;6.70;99.90
4699;DHT22;33708;49.466;11.176;2022-11-23T15:19:26;6.60;99.90
4699;DHT22;33708;49.466;11.176;2022-11-23T15:21:52;6.50;99.90
4699;DHT22;33708;49.466;11.176;2022-11-23T15:24:24;6.40;99.90
4699;DHT22;33708;49.466;11.176;2022-11-23T15:26:50;6.30;99.90
4699;DHT22;33708;49.466;11.176;2022-11-23T15:29:34;6.10;99.90
4699;DHT22;33708;49.466;11.176;2022-11-23T15:32:00;6.10;99.90
4699;DHT22;33708;49.466;11.176;2022-11-23T15:34:27;6.10;99.90
4699;DHT22;33708;49.466;11.176;2022-11-23T15:36:54;6.00;99.90
4699;DHT22;33708;49.466;11.176;2022-11-23T15:39:22;5.80;99.90
4699;DHT22;33708;49.466;11.176;2022-11-23T15:41:52;5.80;99.90
4699;DHT22;33708;49.466;11.176;2022-11-23T15:44:24;5.80;99.90
4699;DHT22;33708;49.466;11.176;2022-11-23T15:46:52;5.70;99.90
4699;DHT22;33708;49.466;11.176;2022-11-23T15:49:19;5.60;99.90
4699;DHT22;33708;49.466;11.176;2022-11-23T15:51:45;5.60;99.90
4699;DHT22;33708;49.466;11.176;2022-11-23T15:54:20;5.50;99.90
4699;DHT22;33708;49.466;11.176;2022-11-23T15:56:49;5.40;99.90
4699;DHT22;33708;49.466;11.176;2022-11-23T15:59:30;5.30;99.90
4699;DHT22;33708;49.466;11.176;2022-11-23T16:01:58;5.40;99.90
4699;DHT22;33708;49.466;11.176;2022-11-23T16:06:51;5.30;99.90
4699;DHT22;33708;49.466;11.176;2022-11-23T16:09:37;5.20;99.90
4699;DHT22;33708;49.466;11.176;2022-11-23T16:12:18;5.00;99.90
4699;DHT22;33708;49.466;11.176;2022-11-23T16:14:44;5.10;99.90
4699;DHT22;33708;49.466;11.176;2022-11-23T16:17:16;5.00;99.90
4699;DHT22;33708;49.466;11.176;2022-11-23T16:19:54;5.00;99.90
4699;DHT22;33708;49.466;11.176;2022-11-23T16:22:32;5.00;99.90
4699;DHT22;33708;49.466;11.176;2022-11-23T16:25:15;5.00;99.90
4699;DHT22;33708;49.466;11.176;2022-11-23T16:27:45;4.90;99.90
4699;DHT22;33708;49.466;11.176;2022-11-23T16:30:23;4.90;99.90
4699;DHT22;33708;49.466;11.176;2022-11-23T16:32:49;4.90;99.90
4699;DHT22;33708;49.466;11.176;2022-11-23T16:35:17;4.80;99.90
4699;DHT22;33708;49.466;11.176;2022-11-23T16:37:43;4.70;99.90
4699;DHT22;33708;49.466;11.176;2022-11-23T16:40:09;4.70;99.90
4699;DHT22;33708;49.466;11.176;2022-11-23T16:42:35;4.60;99.90
4699;DHT22;33708;49.466;11.176;2022-11-23T16:45:00;4.70;99.90
4699;DHT22;33708;49.466;11.176;2022-11-23T16:47:26;4.70;99.90
4699;DHT22;33708;49.466;11.176;2022-11-23T16:49:53;4.60;99.90
4699;DHT22;33708;49.466;11.176;2022-11-23T16:52:19;4.60;99.90
4699;DHT22;33708;49.466;11.176;2022-11-23T16:54:46;4.60;99.90
4699;DHT22;33708;49.466;11.176;2022-11-23T16:57:22;4.60;99.90
4699;DHT22;33708;49.466;11.176;2022-11-23T16:59:49;4.60;99.90
4699;DHT22;33708;49.466;11.176;2022-11-23T17:02:15;4.60;99.90
4699;DHT22;33708;49.466;11.176;2022-11-23T17:04:42;4.60;99.90
4699;DHT22;33708;49.466;11.176;2022-11-23T17:07:08;4.50;99.90
4699;DHT22;33708;49.466;11.176;2022-11-23T17:09:33;4.50;99.90
4699;DHT22;33708;49.466;11.176;2022-11-23T17:11:59;4.50;99.90
4699;DHT22;33708;49.466;11.176;2022-11-23T17:14:25;4.40;99.90
4699;DHT22;33708;49.466;11.176;2022-11-23T17:16:51;4.50;99.90
4699;DHT22;33708;49.466;11.176;2022-11-23T17:19:19;4.50;99.90
4699;DHT22;33708;49.466;11.176;2022-11-23T17:21:46;4.50;99.90
4699;DHT22;33708;49.466;11.176;2022-11-23T17:24:12;4.40;99.90
4699;DHT22;33708;49.466;11.176;2022-11-23T17:26:46;4.30;99.90
4699;DHT22;33708;49.466;11.176;2022-11-23T17:29:14;4.30;99.90
4699;DHT22;33708;49.466;11.176;2022-11-23T17:31:43;4.40;99.90
4699;DHT22;33708;49.466;11.176;2022-11-23T17:34:13;4.40;99.90
4699;DHT22;33708;49.466;11.176;2022-11-23T17:36:39;4.40;99.90
4699;DHT22;33708;49.466;11.176;2022-11-23T17:39:05;4.40;99.90
4699;DHT22;33708;49.466;11.176;2022-11-23T17:41:31;4.40;99.90
4699;DHT22;33708;49.466;11.176;2022-11-23T17:43:56;4.30;99.90
4699;DHT22;33708;49.466;11.176;2022-11-23T17:46:25;4.30;99.90
4699;DHT22;33708;49.466;11.176;2022-11-23T17:48:57;4.20;99.90
4699;DHT22;33708;49.466;11.176;2022-11-23T17:51:23;4.20;99.90
4699;DHT22;33708;49.466;11.176;2022-11-23T17:53:49;4.10;99.90
4699;DHT22;33708;49.466;11.176;2022-11-23T17:56:21;4.10;99.90
4699;DHT22;33708;49.466;11.176;2022-11-23T17:58:47;4.10;99.90
4699;DHT22;33708;49.466;11.176;2022-11-23T18:01:17;4.10;99.90